createdAt,value
2024-03-26T00:00:03.619Z,17.05
2024-03-26T00:00:15.611Z,17.03
2024-03-26T00:00:26.602Z,17.06
2024-03-26T00:00:37.683Z,17.06
2024-03-26T00:00:48.606Z,17.05
2024-03-26T00:00:59.608Z,17.05
2024-03-26T00:01:11.602Z,17.05
2024-03-26T00:01:22.612Z,17.05
2024-03-26T00:01:36.565Z,17.05
2024-03-26T00:01:46.612Z,17.05
2024-03-26T00:01:58.618Z,17.05
2024-03-26T00:02:09.606Z,17.03
2024-03-26T00:02:21.595Z,17.05
2024-03-26T00:02:32.582Z,17.03
2024-03-26T00:02:43.599Z,17.03
2024-03-26T00:02:55.585Z,17.03
2024-03-26T00:03:06.582Z,17.05
2024-03-26T00:03:17.594Z,17.03
2024-03-26T00:03:28.599Z,17.03
2024-03-26T00:03:39.609Z,17.05
2024-03-26T00:03:51.666Z,17.03
2024-03-26T00:04:02.582Z,17.03
2024-03-26T00:04:14.577Z,17.05
2024-03-26T00:04:25.602Z,17.02
2024-03-26T00:04:36.622Z,17.05
2024-03-26T00:04:47.551Z,17.03
2024-03-26T00:04:58.608Z,17.05
2024-03-26T00:05:09.597Z,17.05
2024-03-26T00:05:20.611Z,17.05
2024-03-26T00:05:32.683Z,17.05
2024-03-26T00:05:43.699Z,17.05
2024-03-26T00:05:55.573Z,17.03
2024-03-26T00:06:06.575Z,17.06
2024-03-26T00:06:17.570Z,17.05
2024-03-26T00:06:28.585Z,17.06
2024-03-26T00:06:40.592Z,17.06
2024-03-26T00:06:52.578Z,17.05
2024-03-26T00:07:03.594Z,17.05
2024-03-26T00:07:14.599Z,17.06
2024-03-26T00:07:26.618Z,17.07
2024-03-26T00:07:38.685Z,17.06
2024-03-26T00:07:50.579Z,17.06
2024-03-26T00:08:01.613Z,17.05
2024-03-26T00:08:12.599Z,17.06
2024-03-26T00:08:24.593Z,17.07
2024-03-26T00:08:35.579Z,17.05
2024-03-26T00:08:47.678Z,17.06
2024-03-26T00:08:58.582Z,17.06
2024-03-26T00:09:09.592Z,17.05
2024-03-26T00:09:21.579Z,17.07
2024-03-26T00:09:32.576Z,17.05
2024-03-26T00:09:43.579Z,17.07
2024-03-26T00:09:55.581Z,17.07
2024-03-26T00:10:06.615Z,17.07
2024-03-26T00:10:18.599Z,17.06
2024-03-26T00:10:30.581Z,17.07
2024-03-26T00:10:41.613Z,17.07
2024-03-26T00:10:52.625Z,17.06
2024-03-26T00:11:04.601Z,17.07
2024-03-26T00:11:15.596Z,17.06
2024-03-26T00:11:26.672Z,17.06
2024-03-26T00:11:37.578Z,17.06
2024-03-26T00:11:48.583Z,17.07
2024-03-26T00:11:59.609Z,17.06
2024-03-26T00:12:11.580Z,17.07
2024-03-26T00:12:22.583Z,17.07
2024-03-26T00:12:34.586Z,17.06
2024-03-26T00:12:46.600Z,17.07
2024-03-26T00:12:58.573Z,17.07
2024-03-26T00:13:09.593Z,17.06
2024-03-26T00:13:20.588Z,17.06
2024-03-26T00:13:31.562Z,17.07
2024-03-26T00:13:42.595Z,17.07
2024-03-26T00:13:53.588Z,17.07
2024-03-26T00:14:05.566Z,17.07
2024-03-26T00:14:16.584Z,17.06
2024-03-26T00:14:28.589Z,17.06
2024-03-26T00:14:40.606Z,17.07
2024-03-26T00:14:52.588Z,17.07
2024-03-26T00:15:03.578Z,17.07
2024-03-26T00:15:14.578Z,17.07
2024-03-26T00:15:25.603Z,17.07
2024-03-26T00:15:37.586Z,17.07
2024-03-26T00:15:49.573Z,17.07
2024-03-26T00:16:00.625Z,17.07
2024-03-26T00:16:12.615Z,17.09
2024-03-26T00:16:24.592Z,17.07
2024-03-26T00:16:36.621Z,17.07
2024-03-26T00:16:47.624Z,17.09
2024-03-26T00:16:59.608Z,17.09
2024-03-26T00:17:10.603Z,17.07
2024-03-26T00:17:22.595Z,17.09
2024-03-26T00:17:33.608Z,17.07
2024-03-26T00:17:45.622Z,17.09
2024-03-26T00:17:57.574Z,17.09
2024-03-26T00:18:08.607Z,17.09
2024-03-26T00:18:19.633Z,17.07
2024-03-26T00:18:31.600Z,17.07
2024-03-26T00:18:43.576Z,17.07
2024-03-26T00:18:54.593Z,17.09
2024-03-26T00:19:05.613Z,17.07
2024-03-26T00:19:17.572Z,17.07
2024-03-26T00:19:28.575Z,17.07
2024-03-26T00:19:39.592Z,17.09
2024-03-26T00:19:50.586Z,17.09
2024-03-26T00:20:02.588Z,17.10
2024-03-26T00:20:13.589Z,17.07
2024-03-26T00:20:25.590Z,17.09
2024-03-26T00:20:37.615Z,17.07
2024-03-26T00:20:49.598Z,17.07
2024-03-26T00:21:01.579Z,17.09
2024-03-26T00:21:13.587Z,17.07
2024-03-26T00:21:24.587Z,17.07
2024-03-26T00:21:36.571Z,17.07
2024-03-26T00:21:47.577Z,17.07
2024-03-26T00:21:58.580Z,17.09
2024-03-26T00:22:09.593Z,17.09
2024-03-26T00:22:21.580Z,17.09
2024-03-26T00:22:32.594Z,17.09
2024-03-26T00:22:44.578Z,17.09
2024-03-26T00:22:55.595Z,17.07
2024-03-26T00:23:07.601Z,17.09
2024-03-26T00:23:19.603Z,17.09
2024-03-26T00:23:30.612Z,17.07
2024-03-26T00:23:42.629Z,17.09
2024-03-26T00:23:53.541Z,17.07
2024-03-26T00:24:04.579Z,17.07
2024-03-26T00:24:16.581Z,17.07
2024-03-26T00:24:28.564Z,17.09
2024-03-26T00:24:39.650Z,17.06
2024-03-26T00:24:50.557Z,17.09
2024-03-26T00:25:01.617Z,17.07
2024-03-26T00:25:12.565Z,17.06
2024-03-26T00:25:23.588Z,17.07
2024-03-26T00:25:34.585Z,17.06
2024-03-26T00:25:45.667Z,17.06
2024-03-26T00:25:56.592Z,17.07
2024-03-26T00:26:07.601Z,17.07
2024-03-26T00:26:19.583Z,17.07
2024-03-26T00:26:30.602Z,17.09
2024-03-26T00:26:42.665Z,17.07
2024-03-26T00:26:53.599Z,17.09
2024-03-26T00:27:05.574Z,17.07
2024-03-26T00:27:16.571Z,17.09
2024-03-26T00:27:27.564Z,17.07
2024-03-26T00:27:38.566Z,17.09
2024-03-26T00:27:49.574Z,17.07
2024-03-26T00:28:00.587Z,17.09
2024-03-26T00:28:11.581Z,17.06
2024-03-26T00:28:22.602Z,17.09
2024-03-26T00:28:33.603Z,17.07
2024-03-26T00:28:45.599Z,17.07
2024-03-26T00:28:56.611Z,17.07
2024-03-26T00:29:08.581Z,17.07
2024-03-26T00:29:19.593Z,17.07
2024-03-26T00:29:30.601Z,17.07
2024-03-26T00:29:41.606Z,17.06
2024-03-26T00:29:53.590Z,17.06
2024-03-26T00:30:05.587Z,17.07
2024-03-26T00:30:16.614Z,17.07
2024-03-26T00:30:28.656Z,17.09
2024-03-26T00:30:40.638Z,17.06
2024-03-26T00:30:52.607Z,17.06
2024-03-26T00:31:04.609Z,17.06
2024-03-26T00:31:16.607Z,17.07
2024-03-26T00:31:28.582Z,17.07
2024-03-26T00:31:39.570Z,17.06
2024-03-26T00:31:50.593Z,17.07
2024-03-26T00:32:02.599Z,17.07
2024-03-26T00:32:13.605Z,17.06
2024-03-26T00:32:24.621Z,17.06
2024-03-26T00:32:36.609Z,17.09
2024-03-26T00:32:47.637Z,17.07
2024-03-26T00:32:59.595Z,17.07
2024-03-26T00:33:10.710Z,17.06
2024-03-26T00:33:21.610Z,17.07
2024-03-26T00:33:32.603Z,17.07
2024-03-26T00:33:43.612Z,17.07
2024-03-26T00:33:54.608Z,17.09
2024-03-26T00:34:05.599Z,17.07
2024-03-26T00:34:17.586Z,17.06
2024-03-26T00:34:30.458Z,17.07
2024-03-26T00:34:40.589Z,17.09
2024-03-26T00:34:51.595Z,17.06
2024-03-26T00:35:02.617Z,17.07
2024-03-26T00:35:14.595Z,17.07
2024-03-26T00:35:25.626Z,17.07
2024-03-26T00:35:37.624Z,17.06
2024-03-26T00:35:49.598Z,17.07
2024-03-26T00:36:00.651Z,17.06
2024-03-26T00:36:12.650Z,17.07
2024-03-26T00:36:24.599Z,17.06
2024-03-26T00:36:35.615Z,17.07
2024-03-26T00:36:46.634Z,17.07
2024-03-26T00:36:58.581Z,17.07
2024-03-26T00:37:09.610Z,17.07
2024-03-26T00:37:20.626Z,17.09
2024-03-26T00:37:32.597Z,17.07
2024-03-26T00:37:43.608Z,17.07
2024-03-26T00:37:55.597Z,17.06
2024-03-26T00:38:07.584Z,17.07
2024-03-26T00:38:18.626Z,17.09
2024-03-26T00:38:30.585Z,17.07
2024-03-26T00:38:41.636Z,17.07
2024-03-26T00:38:53.596Z,17.07
2024-03-26T00:39:04.630Z,17.06
2024-03-26T00:39:16.591Z,17.07
2024-03-26T00:39:28.603Z,17.07
2024-03-26T00:39:39.602Z,17.07
2024-03-26T00:39:50.578Z,17.07
2024-03-26T00:40:01.589Z,17.07
2024-03-26T00:40:13.579Z,17.07
2024-03-26T00:40:24.585Z,17.07
2024-03-26T00:40:36.587Z,17.07
2024-03-26T00:40:47.592Z,17.09
2024-03-26T00:40:58.584Z,17.09
2024-03-26T00:41:10.578Z,17.10
2024-03-26T00:41:21.683Z,17.09
2024-03-26T00:41:33.622Z,17.09
2024-03-26T00:41:45.584Z,17.09
2024-03-26T00:41:56.576Z,17.09
2024-03-26T00:42:07.610Z,17.09
2024-03-26T00:42:19.599Z,17.09
2024-03-26T00:42:30.600Z,17.10
2024-03-26T00:42:41.606Z,17.07
2024-03-26T00:42:53.614Z,17.09
2024-03-26T00:43:05.603Z,17.07
2024-03-26T00:43:16.598Z,17.09
2024-03-26T00:43:28.593Z,17.09
2024-03-26T00:43:39.619Z,17.09
2024-03-26T00:43:51.616Z,17.09
2024-03-26T00:44:03.611Z,17.10
2024-03-26T00:44:14.615Z,17.10
2024-03-26T00:44:25.609Z,17.09
2024-03-26T00:44:37.670Z,17.10
2024-03-26T00:44:48.593Z,17.09
2024-03-26T00:44:59.608Z,17.10
2024-03-26T00:45:10.630Z,17.10
2024-03-26T00:45:22.606Z,17.12
2024-03-26T00:45:34.614Z,17.10
2024-03-26T00:45:46.584Z,17.10
2024-03-26T00:45:57.583Z,17.10
2024-03-26T00:46:08.594Z,17.10
2024-03-26T00:46:19.593Z,17.09
2024-03-26T00:46:31.600Z,17.10
2024-03-26T00:46:43.596Z,17.10
2024-03-26T00:46:54.593Z,17.12
2024-03-26T00:47:05.593Z,17.09
2024-03-26T00:47:16.611Z,17.12
2024-03-26T00:47:27.622Z,17.10
2024-03-26T00:47:39.593Z,17.12
2024-03-26T00:47:51.669Z,17.12
2024-03-26T00:48:02.589Z,17.10
2024-03-26T00:48:13.589Z,17.12
2024-03-26T00:48:24.589Z,17.10
2024-03-26T00:48:35.593Z,17.10
2024-03-26T00:48:46.598Z,17.10
2024-03-26T00:48:57.601Z,17.12
2024-03-26T00:49:08.589Z,17.12
2024-03-26T00:49:19.608Z,17.10
2024-03-26T00:49:31.597Z,17.10
2024-03-26T00:49:42.622Z,17.12
2024-03-26T00:49:53.608Z,17.12
2024-03-26T00:50:04.603Z,17.12
2024-03-26T00:50:15.597Z,17.12
2024-03-26T00:50:26.663Z,17.12
2024-03-26T00:50:37.595Z,17.12
2024-03-26T00:50:48.653Z,17.12
2024-03-26T00:50:59.580Z,17.10
2024-03-26T00:51:10.603Z,17.12
2024-03-26T00:51:21.601Z,17.12
2024-03-26T00:51:33.627Z,17.14
2024-03-26T00:51:45.608Z,17.12
2024-03-26T00:51:57.593Z,17.12
2024-03-26T00:52:08.609Z,17.12
2024-03-26T00:52:19.614Z,17.14
2024-03-26T00:52:31.618Z,17.12
2024-03-26T00:52:42.592Z,17.12
2024-03-26T00:52:54.602Z,17.12
2024-03-26T00:53:05.605Z,17.14
2024-03-26T00:53:17.597Z,17.12
2024-03-26T00:53:29.589Z,17.14
2024-03-26T00:53:40.642Z,17.12
2024-03-26T00:53:52.626Z,17.14
2024-03-26T00:54:04.589Z,17.12
2024-03-26T00:54:15.576Z,17.12
2024-03-26T00:54:27.643Z,17.12
2024-03-26T00:54:37.564Z,17.14
2024-03-26T00:54:48.568Z,17.12
2024-03-26T00:54:59.603Z,17.14
2024-03-26T00:55:10.585Z,17.12
2024-03-26T00:55:21.625Z,17.14
2024-03-26T00:55:33.604Z,17.14
2024-03-26T00:55:45.583Z,17.14
2024-03-26T00:55:56.589Z,17.14
2024-03-26T00:56:07.636Z,17.14
2024-03-26T00:56:19.604Z,17.14
2024-03-26T00:56:31.601Z,17.14
2024-03-26T00:56:42.623Z,17.15
2024-03-26T00:56:54.633Z,17.14
2024-03-26T00:57:06.652Z,17.14
2024-03-26T00:57:18.646Z,17.12
2024-03-26T00:57:30.618Z,17.12
2024-03-26T00:57:42.603Z,17.12
2024-03-26T00:57:53.577Z,17.12
2024-03-26T00:58:05.590Z,17.12
2024-03-26T00:58:17.591Z,17.12
2024-03-26T00:58:28.611Z,17.14
2024-03-26T00:58:40.621Z,17.12
2024-03-26T00:58:52.597Z,17.14
2024-03-26T00:59:04.616Z,17.12
2024-03-26T00:59:16.586Z,17.14
2024-03-26T00:59:27.583Z,17.14
2024-03-26T00:59:39.592Z,17.15
2024-03-26T00:59:50.604Z,17.14
2024-03-26T01:00:02.601Z,17.14
2024-03-26T01:00:14.654Z,17.15
2024-03-26T01:00:25.599Z,17.14
2024-03-26T01:00:37.611Z,17.14
2024-03-26T01:00:49.591Z,17.14
2024-03-26T01:01:01.648Z,17.14
2024-03-26T01:01:12.631Z,17.14
2024-03-26T01:01:24.603Z,17.14
2024-03-26T01:01:36.600Z,17.12
2024-03-26T01:01:47.600Z,17.14
2024-03-26T01:01:58.595Z,17.14
2024-03-26T01:02:10.610Z,17.12
2024-03-26T01:02:22.598Z,17.14
2024-03-26T01:02:33.625Z,17.12
2024-03-26T01:02:45.626Z,17.14
2024-03-26T01:02:57.619Z,17.14
2024-03-26T01:03:09.589Z,17.14
2024-03-26T01:03:20.612Z,17.14
2024-03-26T01:03:31.576Z,17.14
2024-03-26T01:03:42.611Z,17.14
2024-03-26T01:03:54.591Z,17.14
2024-03-26T01:04:05.601Z,17.14
2024-03-26T01:04:16.642Z,17.14
2024-03-26T01:04:28.617Z,17.15
2024-03-26T01:04:40.642Z,17.14
2024-03-26T01:04:52.619Z,17.14
2024-03-26T01:05:04.585Z,17.14
2024-03-26T01:05:15.610Z,17.15
2024-03-26T01:05:27.647Z,17.14
2024-03-26T01:05:39.609Z,17.14
2024-03-26T01:05:51.598Z,17.15
2024-03-26T01:06:03.602Z,17.14
2024-03-26T01:06:15.609Z,17.15
2024-03-26T01:06:26.603Z,17.14
2024-03-26T01:06:38.629Z,17.14
2024-03-26T01:06:49.570Z,17.14
2024-03-26T01:07:00.702Z,17.15
2024-03-26T01:07:11.583Z,17.15
2024-03-26T01:07:22.602Z,17.14
2024-03-26T01:07:34.633Z,17.14
2024-03-26T01:07:46.606Z,17.15
2024-03-26T01:07:58.614Z,17.14
2024-03-26T01:08:10.591Z,17.14
2024-03-26T01:08:21.606Z,17.15
2024-03-26T01:08:33.632Z,17.14
2024-03-26T01:08:45.603Z,17.14
2024-03-26T01:08:56.692Z,17.14
2024-03-26T01:09:07.597Z,17.14
2024-03-26T01:09:18.609Z,17.14
2024-03-26T01:09:29.611Z,17.14
2024-03-26T01:09:40.613Z,17.12
2024-03-26T01:09:51.618Z,17.14
2024-03-26T01:10:03.624Z,17.15
2024-03-26T01:10:15.618Z,17.14
2024-03-26T01:10:26.608Z,17.14
2024-03-26T01:10:38.686Z,17.12
2024-03-26T01:10:49.583Z,17.12
2024-03-26T01:11:01.590Z,17.12
2024-03-26T01:11:12.620Z,17.12
2024-03-26T01:11:24.663Z,17.12
2024-03-26T01:11:36.637Z,17.12
2024-03-26T01:11:48.611Z,17.14
2024-03-26T01:12:00.614Z,17.14
2024-03-26T01:12:11.626Z,17.14
2024-03-26T01:12:23.580Z,17.14
2024-03-26T01:12:34.589Z,17.14
2024-03-26T01:12:45.615Z,17.14
2024-03-26T01:12:56.684Z,17.14
2024-03-26T01:13:07.628Z,17.14
2024-03-26T01:13:19.643Z,17.14
2024-03-26T01:13:31.608Z,17.12
2024-03-26T01:13:42.602Z,17.14
2024-03-26T01:13:53.613Z,17.12
2024-03-26T01:14:05.605Z,17.12
2024-03-26T01:14:17.584Z,17.14
2024-03-26T01:14:28.568Z,17.14
2024-03-26T01:14:39.610Z,17.10
2024-03-26T01:14:51.632Z,17.14
2024-03-26T01:15:03.626Z,17.14
2024-03-26T01:15:14.599Z,17.12
2024-03-26T01:15:26.601Z,17.12
2024-03-26T01:15:37.603Z,17.12
2024-03-26T01:15:48.606Z,17.14
2024-03-26T01:15:59.708Z,17.14
2024-03-26T01:16:10.605Z,17.15
2024-03-26T01:16:21.609Z,17.14
2024-03-26T01:16:33.581Z,17.12
2024-03-26T01:16:44.594Z,17.12
2024-03-26T01:16:55.601Z,17.12
2024-03-26T01:17:06.623Z,17.12
2024-03-26T01:17:17.593Z,17.12
2024-03-26T01:17:28.654Z,17.12
2024-03-26T01:17:39.591Z,17.12
2024-03-26T01:17:50.584Z,17.12
2024-03-26T01:18:02.585Z,17.14
2024-03-26T01:18:14.607Z,17.12
2024-03-26T01:18:25.629Z,17.12
2024-03-26T01:18:37.587Z,17.12
2024-03-26T01:18:48.586Z,17.12
2024-03-26T01:18:59.630Z,17.12
2024-03-26T01:19:11.595Z,17.10
2024-03-26T01:19:22.593Z,17.12
2024-03-26T01:19:33.617Z,17.12
2024-03-26T01:19:45.612Z,17.12
2024-03-26T01:19:56.701Z,17.12
2024-03-26T01:20:07.596Z,17.12
2024-03-26T01:20:18.600Z,17.12
2024-03-26T01:20:30.594Z,17.14
2024-03-26T01:20:41.612Z,17.14
2024-03-26T01:20:53.586Z,17.10
2024-03-26T01:21:04.598Z,17.12
2024-03-26T01:21:15.593Z,17.12
2024-03-26T01:21:26.614Z,17.12
2024-03-26T01:21:38.609Z,17.12
2024-03-26T01:21:50.654Z,17.12
2024-03-26T01:22:01.600Z,17.14
2024-03-26T01:22:12.602Z,17.12
2024-03-26T01:22:23.601Z,17.14
2024-03-26T01:22:34.640Z,17.12
2024-03-26T01:22:46.623Z,17.12
2024-03-26T01:22:58.607Z,17.10
2024-03-26T01:23:10.610Z,17.12
2024-03-26T01:23:21.604Z,17.14
2024-03-26T01:23:32.601Z,17.14
2024-03-26T01:23:43.666Z,17.14
2024-03-26T01:23:54.568Z,17.14
2024-03-26T01:24:05.575Z,17.14
2024-03-26T01:24:16.598Z,17.14
2024-03-26T01:24:27.594Z,17.14
2024-03-26T01:24:38.668Z,17.14
2024-03-26T01:24:49.589Z,17.12
2024-03-26T01:25:01.585Z,17.14
2024-03-26T01:25:12.594Z,17.12
2024-03-26T01:25:24.582Z,17.14
2024-03-26T01:25:35.597Z,17.14
2024-03-26T01:25:46.615Z,17.10
2024-03-26T01:25:58.578Z,17.12
2024-03-26T01:26:09.607Z,17.14
2024-03-26T01:26:21.609Z,17.12
2024-03-26T01:26:32.604Z,17.14
2024-03-26T01:26:44.616Z,17.12
2024-03-26T01:26:56.589Z,17.15
2024-03-26T01:27:07.599Z,17.14
2024-03-26T01:27:19.569Z,17.14
2024-03-26T01:27:30.580Z,17.15
2024-03-26T01:27:41.585Z,17.14
2024-03-26T01:27:53.567Z,17.15
2024-03-26T01:28:05.613Z,17.14
2024-03-26T01:28:17.586Z,17.14
2024-03-26T01:28:28.604Z,17.14
2024-03-26T01:28:40.593Z,17.14
2024-03-26T01:28:51.572Z,17.14
2024-03-26T01:29:02.594Z,17.14
2024-03-26T01:29:13.608Z,17.14
2024-03-26T01:29:24.608Z,17.15
2024-03-26T01:29:35.615Z,17.12
2024-03-26T01:29:46.632Z,17.14
2024-03-26T01:29:58.613Z,17.14
2024-03-26T01:30:10.607Z,17.14
2024-03-26T01:30:22.578Z,17.14
2024-03-26T01:30:33.612Z,17.12
2024-03-26T01:30:45.589Z,17.14
2024-03-26T01:31:00.068Z,17.12
2024-03-26T01:31:08.576Z,17.14
2024-03-26T01:31:20.581Z,17.12
2024-03-26T01:31:31.605Z,17.14
2024-03-26T01:31:43.589Z,17.14
2024-03-26T01:31:55.659Z,17.14
2024-03-26T01:32:06.586Z,17.15
2024-03-26T01:32:18.598Z,17.14
2024-03-26T01:32:29.605Z,17.14
2024-03-26T01:32:40.586Z,17.14
2024-03-26T01:32:51.606Z,17.15
2024-03-26T01:33:02.621Z,17.14
2024-03-26T01:33:14.591Z,17.14
2024-03-26T01:33:25.615Z,17.14
2024-03-26T01:33:37.591Z,17.12
2024-03-26T01:33:48.609Z,17.14
2024-03-26T01:33:59.601Z,17.12
2024-03-26T01:34:10.611Z,17.14
2024-03-26T01:34:22.596Z,17.12
2024-03-26T01:34:34.603Z,17.14
2024-03-26T01:34:46.599Z,17.15
2024-03-26T01:34:58.602Z,17.14
2024-03-26T01:35:09.606Z,17.14
2024-03-26T01:35:20.602Z,17.14
2024-03-26T01:35:32.667Z,17.14
2024-03-26T01:35:43.587Z,17.15
2024-03-26T01:35:54.584Z,17.14
2024-03-26T01:36:05.607Z,17.15
2024-03-26T01:36:16.598Z,17.15
2024-03-26T01:36:28.589Z,17.14
2024-03-26T01:36:39.640Z,17.14
2024-03-26T01:36:51.610Z,17.14
2024-03-26T01:37:03.584Z,17.14
2024-03-26T01:37:14.621Z,17.14
2024-03-26T01:37:25.558Z,17.14
2024-03-26T01:37:36.579Z,17.15
2024-03-26T01:37:47.599Z,17.15
2024-03-26T01:37:58.592Z,17.14
2024-03-26T01:38:10.589Z,17.14
2024-03-26T01:38:21.563Z,17.14
2024-03-26T01:38:32.593Z,17.15
2024-03-26T01:38:43.605Z,17.14
2024-03-26T01:38:55.608Z,17.12
2024-03-26T01:39:07.629Z,17.12
2024-03-26T01:39:19.623Z,17.14
2024-03-26T01:39:31.616Z,17.15
2024-03-26T01:39:43.609Z,17.15
2024-03-26T01:39:55.576Z,17.14
2024-03-26T01:40:06.574Z,17.14
2024-03-26T01:40:17.559Z,17.15
2024-03-26T01:40:29.602Z,17.15
2024-03-26T01:40:40.592Z,17.15
2024-03-26T01:40:51.590Z,17.14
2024-03-26T01:41:02.599Z,17.14
2024-03-26T01:41:14.566Z,17.14
2024-03-26T01:41:25.589Z,17.14
2024-03-26T01:41:36.623Z,17.15
2024-03-26T01:41:48.622Z,17.14
2024-03-26T01:42:00.585Z,17.14
2024-03-26T01:42:12.600Z,17.15
2024-03-26T01:42:24.687Z,17.14
2024-03-26T01:42:35.603Z,17.15
2024-03-26T01:42:47.591Z,17.14
2024-03-26T01:42:58.611Z,17.15
2024-03-26T01:43:10.606Z,17.14
2024-03-26T01:43:21.602Z,17.14
2024-03-26T01:43:33.578Z,17.15
2024-03-26T01:43:45.591Z,17.14
2024-03-26T01:43:56.587Z,17.15
2024-03-26T01:44:07.584Z,17.15
2024-03-26T01:44:18.593Z,17.14
2024-03-26T01:44:29.605Z,17.15
2024-03-26T01:44:40.597Z,17.15
2024-03-26T01:44:51.607Z,17.14
2024-03-26T01:45:02.603Z,17.14
2024-03-26T01:45:14.609Z,17.15
2024-03-26T01:45:26.588Z,17.15
2024-03-26T01:45:38.606Z,17.14
2024-03-26T01:45:50.611Z,17.15
2024-03-26T01:46:02.581Z,17.14
2024-03-26T01:46:13.573Z,17.14
2024-03-26T01:46:24.595Z,17.15
2024-03-26T01:46:36.581Z,17.15
2024-03-26T01:46:47.617Z,17.15
2024-03-26T01:46:59.585Z,17.12
2024-03-26T01:47:10.594Z,17.15
2024-03-26T01:47:21.600Z,17.14
2024-03-26T01:47:33.609Z,17.15
2024-03-26T01:47:45.591Z,17.14
2024-03-26T01:47:57.597Z,17.15
2024-03-26T01:48:08.618Z,17.15
2024-03-26T01:48:20.575Z,17.15
2024-03-26T01:48:31.584Z,17.15
2024-03-26T01:48:42.585Z,17.15
2024-03-26T01:48:53.580Z,17.14
2024-03-26T01:49:04.594Z,17.12
2024-03-26T01:49:15.611Z,17.14
2024-03-26T01:49:27.611Z,17.15
2024-03-26T01:49:39.610Z,17.15
2024-03-26T01:49:51.672Z,17.12
2024-03-26T01:50:02.639Z,17.14
2024-03-26T01:50:14.605Z,17.14
2024-03-26T01:50:26.608Z,17.14
2024-03-26T01:50:37.621Z,17.14
2024-03-26T01:50:49.591Z,17.14
2024-03-26T01:51:00.615Z,17.14
2024-03-26T01:51:12.577Z,17.14
2024-03-26T01:51:23.617Z,17.12
2024-03-26T01:51:35.583Z,17.12
2024-03-26T01:51:46.621Z,17.14
2024-03-26T01:51:57.594Z,17.14
2024-03-26T01:52:08.600Z,17.14
2024-03-26T01:52:19.618Z,17.14
2024-03-26T01:52:31.597Z,17.12
2024-03-26T01:52:42.582Z,17.14
2024-03-26T01:52:53.582Z,17.14
2024-03-26T01:53:04.599Z,17.15
2024-03-26T01:53:16.583Z,17.14
2024-03-26T01:53:27.577Z,17.14
2024-03-26T01:53:38.588Z,17.14
2024-03-26T01:53:49.658Z,17.14
2024-03-26T01:54:00.600Z,17.14
2024-03-26T01:54:12.616Z,17.14
2024-03-26T01:54:24.576Z,17.14
2024-03-26T01:54:35.662Z,17.14
2024-03-26T01:54:47.575Z,17.14
2024-03-26T01:54:59.586Z,17.14
2024-03-26T01:55:11.597Z,17.15
2024-03-26T01:55:22.601Z,17.15
2024-03-26T01:55:34.585Z,17.15
2024-03-26T01:55:46.574Z,17.14
2024-03-26T01:55:57.574Z,17.14
2024-03-26T01:56:09.593Z,17.15
2024-03-26T01:56:21.584Z,17.15
2024-03-26T01:56:33.597Z,17.17
2024-03-26T01:56:45.617Z,17.15
2024-03-26T01:56:56.565Z,17.17
2024-03-26T01:57:07.562Z,17.15
2024-03-26T01:57:18.596Z,17.15
2024-03-26T01:57:30.621Z,17.14
2024-03-26T01:57:42.611Z,17.15
2024-03-26T01:57:54.623Z,17.15
2024-03-26T01:58:06.615Z,17.14
2024-03-26T01:58:18.590Z,17.15
2024-03-26T01:58:29.623Z,17.17
2024-03-26T01:58:41.591Z,17.17
2024-03-26T01:58:52.601Z,17.15
2024-03-26T01:59:03.595Z,17.17
2024-03-26T01:59:15.611Z,17.15
2024-03-26T01:59:27.604Z,17.17
2024-03-26T01:59:38.614Z,17.18
2024-03-26T01:59:49.683Z,17.15
2024-03-26T02:00:00.685Z,17.17
2024-03-26T02:00:12.601Z,17.17
2024-03-26T02:00:23.588Z,17.17
2024-03-26T02:00:35.609Z,17.17
2024-03-26T02:00:47.614Z,17.17
2024-03-26T02:00:59.588Z,17.15
2024-03-26T02:01:11.577Z,17.17
2024-03-26T02:01:22.587Z,17.15
2024-03-26T02:01:33.600Z,17.17
2024-03-26T02:01:44.615Z,17.15
2024-03-26T02:01:56.608Z,17.17
2024-03-26T02:02:08.614Z,17.17
2024-03-26T02:02:20.603Z,17.17
2024-03-26T02:02:32.590Z,17.17
2024-03-26T02:02:43.632Z,17.17
2024-03-26T02:02:55.591Z,17.17
2024-03-26T02:03:06.600Z,17.17
2024-03-26T02:03:18.578Z,17.18
2024-03-26T02:03:29.586Z,17.17
2024-03-26T02:03:40.588Z,17.17
2024-03-26T02:03:51.601Z,17.18
2024-03-26T02:04:03.578Z,17.17
2024-03-26T02:04:14.596Z,17.18
2024-03-26T02:04:26.581Z,17.18
2024-03-26T02:04:37.595Z,17.17
2024-03-26T02:04:48.670Z,17.15
2024-03-26T02:04:59.586Z,17.17
2024-03-26T02:05:11.577Z,17.15
2024-03-26T02:05:22.587Z,17.17
2024-03-26T02:05:33.622Z,17.18
2024-03-26T02:05:45.712Z,17.17
2024-03-26T02:05:57.619Z,17.17
2024-03-26T02:06:09.637Z,17.17
2024-03-26T02:06:21.590Z,17.18
2024-03-26T02:06:33.628Z,17.17
2024-03-26T02:06:44.641Z,17.15
2024-03-26T02:06:56.638Z,17.15
2024-03-26T02:07:08.594Z,17.15
2024-03-26T02:07:20.587Z,17.15
2024-03-26T02:07:31.585Z,17.17
2024-03-26T02:07:42.586Z,17.15
2024-03-26T02:07:53.576Z,17.17
2024-03-26T02:08:05.597Z,17.17
2024-03-26T02:08:16.625Z,17.15
2024-03-26T02:08:28.584Z,17.17
2024-03-26T02:08:39.602Z,17.18
2024-03-26T02:08:51.586Z,17.15
2024-03-26T02:09:02.616Z,17.17
2024-03-26T02:09:14.590Z,17.18
2024-03-26T02:09:26.562Z,17.18
2024-03-26T02:09:38.576Z,17.17
2024-03-26T02:09:49.604Z,17.17
2024-03-26T02:10:01.580Z,17.17
2024-03-26T02:10:13.574Z,17.17
2024-03-26T02:10:25.591Z,17.17
2024-03-26T02:10:36.594Z,17.15
2024-03-26T02:10:47.566Z,17.15
2024-03-26T02:10:58.572Z,17.17
2024-03-26T02:11:09.566Z,17.17
2024-03-26T02:11:20.582Z,17.17
2024-03-26T02:11:31.588Z,17.17
2024-03-26T02:11:43.591Z,17.15
2024-03-26T02:11:55.571Z,17.15
2024-03-26T02:12:06.595Z,17.17
2024-03-26T02:12:18.593Z,17.15
2024-03-26T02:12:29.605Z,17.15
2024-03-26T02:12:41.620Z,17.15
2024-03-26T02:12:53.598Z,17.17
2024-03-26T02:13:05.586Z,17.17
2024-03-26T02:13:16.590Z,17.17
2024-03-26T02:13:27.576Z,17.17
2024-03-26T02:13:38.611Z,17.17
2024-03-26T02:13:50.587Z,17.15
2024-03-26T02:14:02.605Z,17.15
2024-03-26T02:14:13.609Z,17.15
2024-03-26T02:14:25.588Z,17.15
2024-03-26T02:14:36.589Z,17.17
2024-03-26T02:14:48.617Z,17.17
2024-03-26T02:15:00.639Z,17.17
2024-03-26T02:15:11.590Z,17.18
2024-03-26T02:15:23.585Z,17.15
2024-03-26T02:15:35.628Z,17.14
2024-03-26T02:15:47.585Z,17.15
2024-03-26T02:15:58.623Z,17.15
2024-03-26T02:16:10.602Z,17.15
2024-03-26T02:16:22.595Z,17.15
2024-03-26T02:16:33.581Z,17.17
2024-03-26T02:16:44.655Z,17.17
2024-03-26T02:16:55.590Z,17.17
2024-03-26T02:17:06.594Z,17.15
2024-03-26T02:17:18.590Z,17.17
2024-03-26T02:17:30.615Z,17.17
2024-03-26T02:17:42.613Z,17.17
2024-03-26T02:17:54.599Z,17.15
2024-03-26T02:18:05.627Z,17.17
2024-03-26T02:18:17.592Z,17.15
2024-03-26T02:18:28.590Z,17.15
2024-03-26T02:18:40.574Z,17.17
2024-03-26T02:18:51.589Z,17.17
2024-03-26T02:19:02.588Z,17.17
2024-03-26T02:19:13.571Z,17.15
2024-03-26T02:19:24.569Z,17.14
2024-03-26T02:19:35.586Z,17.15
2024-03-26T02:19:46.670Z,17.15
2024-03-26T02:19:58.579Z,17.17
2024-03-26T02:20:09.592Z,17.15
2024-03-26T02:20:20.602Z,17.15
2024-03-26T02:20:31.599Z,17.15
2024-03-26T02:20:45.608Z,17.15
2024-03-26T02:20:54.643Z,17.17
2024-03-26T02:21:06.633Z,17.15
2024-03-26T02:21:18.610Z,17.17
2024-03-26T02:21:30.569Z,17.17
2024-03-26T02:21:41.571Z,17.18
2024-03-26T02:21:52.601Z,17.17
2024-03-26T02:22:04.577Z,17.15
2024-03-26T02:22:15.611Z,17.17
2024-03-26T02:22:27.617Z,17.17
2024-03-26T02:22:39.606Z,17.17
2024-03-26T02:22:51.628Z,17.17
2024-03-26T02:23:03.629Z,17.18
2024-03-26T02:23:15.609Z,17.17
2024-03-26T02:23:27.606Z,17.18
2024-03-26T02:23:39.583Z,17.17
2024-03-26T02:23:50.586Z,17.17
2024-03-26T02:24:01.595Z,17.17
2024-03-26T02:24:13.597Z,17.15
2024-03-26T02:24:24.603Z,17.15
2024-03-26T02:24:36.592Z,17.15
2024-03-26T02:24:47.591Z,17.17
2024-03-26T02:24:59.586Z,17.18
2024-03-26T02:25:10.617Z,17.17
2024-03-26T02:25:22.625Z,17.17
2024-03-26T02:25:34.634Z,17.17
2024-03-26T02:25:46.637Z,17.17
2024-03-26T02:25:58.591Z,17.17
2024-03-26T02:26:09.601Z,17.17
2024-03-26T02:26:22.175Z,17.17
2024-03-26T02:26:33.649Z,17.17
2024-03-26T02:26:44.637Z,17.17
2024-03-26T02:26:56.575Z,17.15
2024-03-26T02:27:07.598Z,17.17
2024-03-26T02:27:18.595Z,17.17
2024-03-26T02:27:29.606Z,17.17